Sugar Grove, IL (60554)

6:26 AM CST on December 03, 2016 (GMT -0600)
APRSWXNET | | Change Station

Elev 721 ft 41.76 °N, 88.36 °W | Updated 21 minutes ago

Overcast
Overcast
32 °F
Feels Like 32 °F
N
0
Wind Variable Wind from West
Gusts 0.0 mph

Today
High -- | Low -- °F
--% Chance of Precip.
Yesterday
High -- | Low -- °F
Precip. -- in
Pressure 30.38 in
Visibility 9.0 miles
Clouds Overcast 2500 ft
Windchill 32 °F
Dew Point 26 °F
Humidity 79%
Rainfall in
Snow Depth Not available.
7:04 AM 4:23 PM
Waxing Crescent, 14% visible
METAR KARR 031152Z AUTO 29004KT 9SM OVC025 01/M03 A3036 RMK AO2 SLP287 T00061028 10006 20006 51005
Pressure 30.38 in
Visibility 9.0 miles
Clouds Overcast 2500 ft
Windchill 32 °F
Dew Point 26 °F
Humidity 79%
Rainfall in
Snow Depth Not available.
7:04 AM 4:23 PM
Waxing Crescent, 14% visible
METAR KARR 031152Z AUTO 29004KT 9SM OVC025 01/M03 A3036 RMK AO2 SLP287 T00061028 10006 20006 51005

10-Day Weather Forecast

Almanac

Astronomy

Dec. 03, 2016 Rise Set
Actual Time
Civil Twilight
Nautical Twilight
Astronomical Twilight
Moon
Length of Visible Light
Length of Day
Tomorrow will be .
, % of the Moon is Illuminated

Today's Extremes

State Highs State Lows

Community

WunderPhotos

Upload Photos

1,955,441 photos uploaded!

WunderBlog® & News

Nearby

Air Quality

  Air Quality AQ Index Pollutant
Not available.

Snow Depth

Station Depth Elevation

Earthquake Activity

City Distance Mag. Time & Date
Minimum magnitude displayed is 2.5.

Coastal Water Temperatures

Place Temperature

Stations

Nearby Weather Stations

Station Location Temp. Windchill Dew Point Humidity Wind Precip. Elev Updated Type
                   

Watches & Warnings

There are currently no watches in effect.